createdAt,value
2019-04-22T00:02:05.688Z,13.50
2019-04-22T00:04:47.583Z,13.27
2019-04-22T00:07:28.959Z,11.13
2019-04-22T00:12:34.626Z,11.63
2019-04-22T00:15:02.292Z,12.47
2019-04-22T00:17:40.145Z,12.10
2019-04-22T00:20:08.710Z,11.17
2019-04-22T00:25:13.354Z,10.23
2019-04-22T00:27:42.805Z,9.97
2019-04-22T00:30:21.563Z,8.87
2019-04-22T00:32:51.295Z,8.63
2019-04-22T00:35:18.084Z,8.17
2019-04-22T00:37:59.902Z,9.17
2019-04-22T00:40:30.882Z,9.47
2019-04-22T00:42:55.429Z,9.83
2019-04-22T00:45:27.026Z,25.87
2019-04-22T00:48:00.880Z,27.33
2019-04-22T00:53:04.427Z,17.10
2019-04-22T00:55:33.765Z,10.37
2019-04-22T00:58:06.267Z,9.20
2019-04-22T01:00:40.661Z,10.17
2019-04-22T01:03:17.384Z,9.63
2019-04-22T01:05:42.222Z,10.60
2019-04-22T01:08:09.876Z,10.67
2019-04-22T01:10:40.770Z,11.47
2019-04-22T01:13:11.350Z,11.17
2019-04-22T01:15:40.438Z,11.90
2019-04-22T01:18:09.805Z,11.17
2019-04-22T01:21:00.963Z,11.43
2019-04-22T01:23:12.736Z,11.50
2019-04-22T01:25:41.074Z,10.50
2019-04-22T01:28:09.949Z,10.30
2019-04-22T01:30:34.979Z,9.17
2019-04-22T01:33:05.677Z,8.87
2019-04-22T01:35:41.146Z,9.87
2019-04-22T01:38:17.690Z,9.83
2019-04-22T01:41:05.018Z,9.20
2019-04-22T01:43:25.177Z,9.00
2019-04-22T01:46:02.635Z,9.90
2019-04-22T01:48:26.127Z,16.53
2019-04-22T01:50:56.190Z,10.07
2019-04-22T01:53:36.108Z,8.67
2019-04-22T01:56:02.137Z,8.47
2019-04-22T01:58:31.090Z,7.70
2019-04-22T02:01:04.560Z,8.10
2019-04-22T02:03:42.324Z,7.03
2019-04-22T02:06:07.537Z,9.17
2019-04-22T02:08:45.138Z,7.17
2019-04-22T02:11:17.330Z,8.10
2019-04-22T02:13:43.091Z,7.87
2019-04-22T02:16:17.928Z,8.67
2019-04-22T02:18:44.466Z,8.60
2019-04-22T02:21:13.726Z,8.53
2019-04-22T02:26:18.029Z,8.73
2019-04-22T02:29:01.884Z,8.60
2019-04-22T02:36:29.463Z,8.70
2019-04-22T02:41:26.381Z,8.60
2019-04-22T02:44:13.692Z,8.63
2019-04-22T02:46:47.498Z,8.40
2019-04-22T02:49:16.614Z,8.70
2019-04-22T02:51:27.895Z,8.93
2019-04-22T02:59:12.364Z,9.07
2019-04-22T03:01:39.782Z,8.20
2019-04-22T03:04:10.953Z,8.20
2019-04-22T03:06:42.693Z,9.10
2019-04-22T03:09:16.571Z,8.80
2019-04-22T03:19:26.188Z,8.93
2019-04-22T03:21:46.929Z,8.40
2019-04-22T03:26:55.765Z,9.43
2019-04-22T03:29:46.667Z,9.37
2019-04-22T03:37:34.022Z,9.60
2019-04-22T03:39:59.281Z,9.43
2019-04-22T03:49:55.899Z,10.67
2019-04-22T03:55:00.751Z,9.50
2019-04-22T03:57:40.581Z,10.47
2019-04-22T04:02:30.749Z,10.27
2019-04-22T04:04:49.620Z,9.70
2019-04-22T04:10:01.462Z,10.30
2019-04-22T04:12:28.708Z,10.53
2019-04-22T04:15:05.428Z,9.73
2019-04-22T04:25:24.943Z,8.93
2019-04-22T04:30:14.764Z,9.63
2019-04-22T04:32:41.453Z,9.80
2019-04-22T04:37:50.123Z,10.07
2019-04-22T04:40:28.958Z,9.53
2019-04-22T04:47:49.225Z,9.97
2019-04-22T04:50:12.357Z,9.40
2019-04-22T04:53:02.588Z,10.17
2019-04-22T04:55:26.712Z,9.63
2019-04-22T04:58:04.432Z,10.20
2019-04-22T05:00:37.317Z,9.97
2019-04-22T05:02:53.003Z,10.30
2019-04-22T05:05:28.762Z,9.77
2019-04-22T05:08:00.769Z,8.83
2019-04-22T05:10:39.096Z,9.83
2019-04-22T05:12:57.209Z,8.87
2019-04-22T05:17:58.022Z,8.73
2019-04-22T05:20:49.256Z,8.30
2019-04-22T05:22:51.359Z,8.53
2019-04-22T05:27:57.644Z,9.23
2019-04-22T05:33:18.360Z,9.20
2019-04-22T05:35:31.125Z,8.23
2019-04-22T05:38:04.216Z,9.00
2019-04-22T05:40:44.125Z,8.90
2019-04-22T05:43:02.507Z,9.17
2019-04-22T05:45:32.816Z,9.13
2019-04-22T05:48:02.809Z,9.50
2019-04-22T05:50:37.100Z,8.63
2019-04-22T05:53:19.890Z,9.20
2019-04-22T05:55:43.860Z,9.07
2019-04-22T05:58:08.980Z,8.63
2019-04-22T06:01:14.414Z,8.47
2019-04-22T06:03:16.070Z,8.53
2019-04-22T06:05:47.927Z,7.83
2019-04-22T06:08:19.638Z,8.67
2019-04-22T06:10:54.094Z,8.30
2019-04-22T06:13:23.589Z,7.93
2019-04-22T06:19:08.723Z,7.73
2019-04-22T06:21:38.538Z,7.90
2019-04-22T06:24:18.730Z,7.33
2019-04-22T06:27:41.606Z,8.30
2019-04-22T06:29:15.332Z,7.60
2019-04-22T06:32:03.970Z,7.80
2019-04-22T06:34:17.901Z,8.67
2019-04-22T06:36:51.088Z,7.20
2019-04-22T06:39:30.783Z,7.87
2019-04-22T06:41:56.206Z,8.50
2019-04-22T06:44:24.156Z,7.27
2019-04-22T06:47:00.599Z,8.07
2019-04-22T06:49:35.879Z,8.10
2019-04-22T06:56:15.851Z,7.20
2019-04-22T06:58:55.086Z,7.10
2019-04-22T07:01:31.434Z,6.70
2019-04-22T07:04:17.122Z,7.10
2019-04-22T07:07:05.373Z,6.70
2019-04-22T07:10:11.582Z,7.23
2019-04-22T07:12:54.290Z,6.30
2019-04-22T07:19:18.409Z,6.83
2019-04-22T07:21:43.982Z,7.40
2019-04-22T07:24:40.589Z,6.73
2019-04-22T07:27:00.493Z,6.80
2019-04-22T07:29:52.477Z,6.63
2019-04-22T07:32:17.178Z,6.33
2019-04-22T07:37:28.453Z,5.40
2019-04-22T07:39:51.375Z,5.87
2019-04-22T07:42:28.227Z,5.57
2019-04-22T07:44:59.339Z,5.47
2019-04-22T07:47:35.422Z,5.10
2019-04-22T07:49:59.183Z,5.60
2019-04-22T07:52:34.887Z,5.50
2019-04-22T07:55:04.287Z,5.50
2019-04-22T07:57:40.909Z,5.97
2019-04-22T08:00:22.765Z,5.30
2019-04-22T08:02:44.186Z,6.20
2019-04-22T08:05:17.195Z,5.60
2019-04-22T08:07:45.393Z,5.60
2019-04-22T08:10:25.568Z,5.30
2019-04-22T08:12:47.507Z,4.90
2019-04-22T08:15:12.532Z,4.73
2019-04-22T08:17:55.088Z,4.73
2019-04-22T08:20:25.224Z,4.60
2019-04-22T08:23:02.923Z,4.20
2019-04-22T08:25:27.159Z,3.60
2019-04-22T08:27:57.155Z,4.30
2019-04-22T08:30:30.389Z,4.50
2019-04-22T08:33:16.183Z,4.53
2019-04-22T08:35:50.208Z,4.33
2019-04-22T08:38:02.484Z,4.20
2019-04-22T08:40:36.427Z,4.30
2019-04-22T08:43:07.211Z,4.40
2019-04-22T08:45:38.464Z,4.40
2019-04-22T08:48:00.993Z,4.50
2019-04-22T08:50:41.308Z,4.07
2019-04-22T08:53:11.094Z,4.37
2019-04-22T08:58:20.265Z,4.10
2019-04-22T09:00:50.020Z,4.47
2019-04-22T09:03:10.700Z,4.10
2019-04-22T09:05:58.309Z,3.93
2019-04-22T09:08:19.295Z,3.60
2019-04-22T09:10:48.655Z,3.80
2019-04-22T09:13:18.594Z,3.80
2019-04-22T09:15:49.164Z,3.77
2019-04-22T09:18:21.745Z,3.70
2019-04-22T09:21:04.703Z,3.73
2019-04-22T09:25:59.567Z,3.77
2019-04-22T09:28:24.574Z,3.60
2019-04-22T09:31:01.279Z,3.60
2019-04-22T09:33:34.886Z,3.60
2019-04-22T09:36:12.802Z,2.80
2019-04-22T09:41:10.378Z,3.10
2019-04-22T09:43:40.669Z,3.10
2019-04-22T09:46:08.888Z,3.47
2019-04-22T09:51:12.038Z,3.30
2019-04-22T09:56:18.090Z,2.90
2019-04-22T09:58:50.587Z,3.17
2019-04-22T10:01:24.296Z,3.00
2019-04-22T10:03:56.449Z,3.70
2019-04-22T10:09:22.655Z,3.50
2019-04-22T10:11:31.324Z,3.40
2019-04-22T10:14:03.920Z,3.40
2019-04-22T10:19:00.941Z,3.47
2019-04-22T10:21:37.186Z,4.00
2019-04-22T10:23:59.982Z,3.90
2019-04-22T10:26:34.928Z,4.00
2019-04-22T10:29:09.116Z,4.07
2019-04-22T10:31:37.146Z,4.47
2019-04-22T10:33:53.177Z,4.13
2019-04-22T10:36:09.974Z,4.00
2019-04-22T10:38:42.122Z,3.93
2019-04-22T10:41:12.369Z,3.97
2019-04-22T10:43:43.234Z,4.93
2019-04-22T10:46:13.848Z,5.30
2019-04-22T10:48:44.339Z,5.13
2019-04-22T10:51:14.796Z,4.80
2019-04-22T10:53:44.202Z,5.03
2019-04-22T10:56:14.758Z,5.20
2019-04-22T10:58:44.732Z,5.10
2019-04-22T11:01:15.860Z,4.93
2019-04-22T11:03:46.744Z,4.60
2019-04-22T11:06:17.131Z,4.73
2019-04-22T11:08:52.266Z,5.07
2019-04-22T11:11:30.191Z,4.90
2019-04-22T11:13:49.620Z,4.70
2019-04-22T11:16:19.358Z,4.73
2019-04-22T11:18:49.600Z,5.13
2019-04-22T11:21:19.908Z,4.90
2019-04-22T11:23:50.387Z,4.20
2019-04-22T11:26:21.800Z,4.77
2019-04-22T11:28:51.769Z,5.37
2019-04-22T11:31:21.661Z,4.67
2019-04-22T11:33:52.500Z,5.20
2019-04-22T11:36:21.958Z,4.70
2019-04-22T11:38:56.537Z,5.10
2019-04-22T11:41:23.564Z,4.70
2019-04-22T11:43:53.605Z,5.10
2019-04-22T11:46:23.183Z,5.60
2019-04-22T11:48:53.953Z,5.30
2019-04-22T11:51:24.332Z,4.63
2019-04-22T11:53:54.785Z,5.10
2019-04-22T11:56:25.262Z,5.00
2019-04-22T11:58:55.200Z,4.90
2019-04-22T12:01:24.693Z,5.10
2019-04-22T12:03:53.951Z,4.80
2019-04-22T12:06:24.041Z,5.10
2019-04-22T12:08:54.173Z,5.27
2019-04-22T12:11:23.988Z,5.20
2019-04-22T12:13:54.018Z,4.97
2019-04-22T12:16:23.423Z,5.50
2019-04-22T12:18:53.498Z,5.30
2019-04-22T12:21:23.413Z,5.47
2019-04-22T12:23:52.909Z,5.33
2019-04-22T12:26:25.107Z,5.57
2019-04-22T12:28:55.054Z,5.20
2019-04-22T12:31:24.425Z,5.80
2019-04-22T12:33:55.002Z,5.43
2019-04-22T12:36:24.656Z,5.63
2019-04-22T12:38:55.346Z,5.70
2019-04-22T12:41:25.830Z,6.53
2019-04-22T12:43:55.489Z,6.00
2019-04-22T12:46:26.119Z,5.93
2019-04-22T12:48:56.213Z,5.93
2019-04-22T12:51:27.229Z,5.70
2019-04-22T12:53:57.475Z,5.43
2019-04-22T12:56:27.869Z,5.97
2019-04-22T12:58:57.518Z,5.97
2019-04-22T13:01:27.061Z,5.77
2019-04-22T13:04:02.063Z,5.60
2019-04-22T13:06:28.139Z,5.40
2019-04-22T13:08:57.848Z,5.63
2019-04-22T13:11:30.929Z,6.17
2019-04-22T13:13:59.007Z,5.37
2019-04-22T13:16:29.298Z,5.53
2019-04-22T13:19:02.220Z,6.07
2019-04-22T13:21:31.117Z,5.70
2019-04-22T13:24:02.527Z,5.63
2019-04-22T13:26:33.724Z,5.90
2019-04-22T13:29:03.331Z,5.87
2019-04-22T13:31:33.126Z,5.83
2019-04-22T13:34:04.064Z,5.93
2019-04-22T13:36:34.438Z,6.10
2019-04-22T13:39:06.993Z,6.13
2019-04-22T13:44:09.140Z,6.57
2019-04-22T13:46:41.102Z,6.17
2019-04-22T13:49:40.459Z,6.10
2019-04-22T13:52:26.663Z,6.20
2019-04-22T13:53:53.454Z,6.43
2019-04-22T13:57:03.873Z,5.57
2019-04-22T13:59:23.062Z,5.40
2019-04-22T14:02:04.452Z,5.57
2019-04-22T14:04:38.467Z,5.20
2019-04-22T14:07:07.954Z,5.53
2019-04-22T14:09:38.215Z,5.60
2019-04-22T14:12:11.483Z,6.03
2019-04-22T14:14:41.888Z,5.78
2019-04-22T14:17:11.217Z,5.73
2019-04-22T14:19:40.662Z,5.70
2019-04-22T14:22:11.637Z,5.50
2019-04-22T14:24:42.665Z,5.27
2019-04-22T14:27:25.830Z,5.23
2019-04-22T14:29:43.866Z,4.70
2019-04-22T14:32:21.041Z,5.23
2019-04-22T14:34:44.985Z,5.30
2019-04-22T14:37:14.380Z,5.00
2019-04-22T14:39:44.323Z,5.43
2019-04-22T14:42:34.327Z,5.23
2019-04-22T14:45:20.228Z,5.83
2019-04-22T14:47:39.663Z,5.27
2019-04-22T14:50:07.998Z,5.07
2019-04-22T14:52:39.484Z,5.27
2019-04-22T14:55:00.898Z,5.40
2019-04-22T14:57:21.255Z,4.40
2019-04-22T14:59:50.396Z,5.30
2019-04-22T15:02:19.745Z,5.03
2019-04-22T15:04:50.090Z,5.17
2019-04-22T15:07:19.347Z,5.47
2019-04-22T15:09:48.553Z,5.00
2019-04-22T15:12:29.964Z,5.90
2019-04-22T15:14:51.180Z,6.17
2019-04-22T15:17:38.841Z,5.70
2019-04-22T15:20:48.726Z,6.13
2019-04-22T15:23:16.923Z,5.73
2019-04-22T15:25:46.473Z,6.17
2019-04-22T15:28:15.807Z,5.90
2019-04-22T15:30:47.730Z,8.77
2019-04-22T15:33:17.534Z,6.70
2019-04-22T15:35:47.255Z,6.30
2019-04-22T15:38:17.742Z,6.60
2019-04-22T15:40:49.022Z,6.77
2019-04-22T15:43:18.248Z,6.77
2019-04-22T15:45:48.534Z,6.70
2019-04-22T15:48:18.830Z,7.00
2019-04-22T15:50:48.881Z,6.90
2019-04-22T15:53:20.069Z,6.57
2019-04-22T15:55:50.407Z,6.53
2019-04-22T15:58:20.007Z,6.57
2019-04-22T16:01:00.029Z,6.90
2019-04-22T16:03:22.606Z,6.40
2019-04-22T16:05:54.408Z,6.20
2019-04-22T16:08:24.709Z,6.60
2019-04-22T16:10:55.806Z,6.33
2019-04-22T16:13:28.717Z,6.60
2019-04-22T16:15:56.501Z,6.37
2019-04-22T16:18:26.506Z,6.43
2019-04-22T16:20:56.450Z,6.23
2019-04-22T16:23:54.609Z,6.57
2019-04-22T16:26:50.576Z,6.57
2019-04-22T16:29:21.270Z,6.57
2019-04-22T16:31:51.479Z,7.07
2019-04-22T16:34:21.686Z,6.43
2019-04-22T16:36:52.539Z,6.90
2019-04-22T16:39:22.801Z,7.13
2019-04-22T16:41:52.828Z,6.20
2019-04-22T16:44:22.663Z,7.10
2019-04-22T16:46:52.531Z,7.27
2019-04-22T16:49:23.598Z,7.60
2019-04-22T16:51:56.053Z,7.43
2019-04-22T16:54:26.360Z,7.43
2019-04-22T16:57:01.895Z,7.10
2019-04-22T16:59:32.755Z,7.17
2019-04-22T17:02:34.762Z,7.40
2019-04-22T17:05:23.219Z,7.73
2019-04-22T17:07:54.215Z,7.73
2019-04-22T17:10:23.798Z,7.77
2019-04-22T17:13:00.223Z,7.93
2019-04-22T17:15:24.820Z,8.07
2019-04-22T17:17:54.934Z,7.60
2019-04-22T17:20:25.128Z,7.40
2019-04-22T17:22:55.802Z,7.57
2019-04-22T17:25:26.598Z,7.77
2019-04-22T17:27:57.371Z,7.93
2019-04-22T17:30:26.926Z,7.73
2019-04-22T17:32:56.696Z,7.27
2019-04-22T17:35:26.274Z,7.37
2019-04-22T17:38:06.520Z,8.50
2019-04-22T17:40:48.769Z,7.93
2019-04-22T17:43:29.856Z,7.77
2019-04-22T17:46:10.828Z,7.70
2019-04-22T17:48:53.304Z,7.87
2019-04-22T17:51:29.411Z,8.43
2019-04-22T17:53:59.605Z,7.80
2019-04-22T17:56:32.478Z,7.93
2019-04-22T17:59:18.662Z,7.90
2019-04-22T18:01:29.706Z,8.20
2019-04-22T18:03:49.178Z,8.00
2019-04-22T18:06:39.225Z,8.00
2019-04-22T18:09:02.169Z,8.40
2019-04-22T18:11:41.529Z,7.93
2019-04-22T18:14:25.861Z,8.50
2019-04-22T18:16:42.780Z,8.47
2019-04-22T18:19:09.978Z,8.30
2019-04-22T18:21:35.083Z,8.60
2019-04-22T18:24:01.265Z,8.53
2019-04-22T18:26:43.704Z,8.20
2019-04-22T18:29:11.487Z,8.63
2019-04-22T18:31:44.228Z,8.00
2019-04-22T18:34:21.265Z,8.97
2019-04-22T18:36:54.963Z,8.30
2019-04-22T18:39:42.422Z,8.50
2019-04-22T18:42:05.791Z,9.43
2019-04-22T18:44:40.230Z,9.10
2019-04-22T18:47:10.695Z,8.70
2019-04-22T18:49:40.601Z,8.60
2019-04-22T18:52:31.802Z,8.73
2019-04-22T18:55:16.642Z,8.50
2019-04-22T18:57:59.875Z,9.23
2019-04-22T19:00:19.158Z,9.23
2019-04-22T19:02:56.818Z,8.83
2019-04-22T19:05:35.946Z,9.47
2019-04-22T19:08:18.338Z,9.83
2019-04-22T19:11:05.003Z,8.80
2019-04-22T19:16:00.511Z,8.97
2019-04-22T19:20:59.892Z,9.27
2019-04-22T19:23:25.728Z,9.47
2019-04-22T19:25:55.669Z,8.53
2019-04-22T19:28:37.641Z,8.43
2019-04-22T19:31:02.637Z,8.60
2019-04-22T19:33:28.958Z,8.37
2019-04-22T19:35:59.271Z,8.63
2019-04-22T19:38:25.320Z,8.80
2019-04-22T19:43:38.941Z,8.50
2019-04-22T19:46:08.789Z,8.20
2019-04-22T19:48:45.709Z,8.80
2019-04-22T19:51:20.988Z,8.73
2019-04-22T19:53:46.986Z,8.80
2019-04-22T19:56:10.175Z,8.80
2019-04-22T19:58:44.432Z,8.40
2019-04-22T20:01:32.082Z,9.10
2019-04-22T20:04:19.291Z,8.20
2019-04-22T20:07:17.902Z,9.17
2019-04-22T20:09:55.289Z,8.53
2019-04-22T20:12:21.722Z,8.50
2019-04-22T20:14:49.530Z,8.40
2019-04-22T20:17:26.619Z,8.53
2019-04-22T20:20:16.386Z,8.60
2019-04-22T20:22:28.651Z,8.57
2019-04-22T20:24:47.105Z,8.17
2019-04-22T20:27:31.737Z,8.10
2019-04-22T20:30:09.910Z,8.33
2019-04-22T20:32:36.106Z,8.37
2019-04-22T20:35:07.977Z,8.63
2019-04-22T20:37:48.173Z,7.77
2019-04-22T20:40:10.729Z,8.90
2019-04-22T20:42:48.693Z,8.10
2019-04-22T20:45:15.021Z,8.10
2019-04-22T20:47:40.501Z,8.80
2019-04-22T20:50:19.619Z,8.93
2019-04-22T20:52:54.045Z,8.20
2019-04-22T20:55:13.123Z,8.57
2019-04-22T20:57:53.558Z,8.33
2019-04-22T21:00:15.075Z,8.87
2019-04-22T21:02:46.480Z,8.30
2019-04-22T21:05:22.544Z,8.30
2019-04-22T21:07:57.786Z,8.30
2019-04-22T21:10:22.809Z,8.07
2019-04-22T21:12:50.955Z,8.30
2019-04-22T21:15:31.437Z,8.53
2019-04-22T21:18:04.384Z,7.97
2019-04-22T21:20:41.169Z,7.70
2019-04-22T21:23:02.733Z,8.87
2019-04-22T21:25:27.717Z,7.80
2019-04-22T21:28:09.583Z,7.73
2019-04-22T21:30:37.708Z,7.83
2019-04-22T21:33:03.599Z,7.80
2019-04-22T21:36:23.523Z,7.93
2019-04-22T21:38:32.587Z,7.00
2019-04-22T21:41:05.980Z,7.13
2019-04-22T21:43:36.945Z,6.57
2019-04-22T21:46:13.402Z,7.00
2019-04-22T21:48:49.385Z,6.90
2019-04-22T21:51:19.894Z,6.90
2019-04-22T21:53:50.376Z,6.40
2019-04-22T21:56:41.042Z,7.10
2019-04-22T21:58:56.148Z,6.33
2019-04-22T22:01:44.721Z,6.40
2019-04-22T22:04:09.719Z,6.60
2019-04-22T22:06:33.659Z,6.57
2019-04-22T22:09:15.760Z,6.80
2019-04-22T22:11:38.596Z,6.40
2019-04-22T22:14:11.570Z,6.00
2019-04-22T22:16:34.932Z,6.70
2019-04-22T22:19:11.707Z,6.40
2019-04-22T22:21:53.173Z,6.77
2019-04-22T22:24:20.696Z,6.93
2019-04-22T22:26:53.936Z,6.60
2019-04-22T22:29:29.434Z,6.83
2019-04-22T22:31:52.891Z,6.80
2019-04-22T22:34:25.098Z,6.90
2019-04-22T22:36:46.519Z,7.10
2019-04-22T22:39:17.404Z,7.27
2019-04-22T22:41:35.960Z,7.00
2019-04-22T22:44:15.659Z,7.07
2019-04-22T22:46:54.931Z,7.43
2019-04-22T22:49:32.970Z,6.90
2019-04-22T22:52:16.704Z,6.80
2019-04-22T22:54:34.932Z,7.30
2019-04-22T22:57:08.789Z,7.00
2019-04-22T22:59:32.889Z,7.60
2019-04-22T23:02:01.295Z,7.70
2019-04-22T23:04:39.620Z,7.30
2019-04-22T23:07:11.156Z,7.97
2019-04-22T23:09:36.662Z,7.67
2019-04-22T23:14:44.500Z,7.40
2019-04-22T23:16:59.178Z,7.67
2019-04-22T23:19:21.820Z,7.33
2019-04-22T23:21:57.506Z,7.33
2019-04-22T23:24:59.885Z,7.87
2019-04-22T23:27:38.970Z,7.47
2019-04-22T23:30:25.166Z,7.70
2019-04-22T23:33:03.398Z,7.57
2019-04-22T23:35:44.662Z,7.23
2019-04-22T23:38:11.996Z,7.40
2019-04-22T23:41:00.095Z,7.33
2019-04-22T23:43:27.549Z,7.63
2019-04-22T23:45:51.983Z,7.70
2019-04-22T23:48:21.067Z,8.70
2019-04-22T23:50:57.411Z,7.70
2019-04-22T23:53:47.448Z,7.73
2019-04-22T23:56:01.737Z,8.00
2019-04-22T23:58:49.214Z,7.80
